Time;durP1;ratioP1;P1;durP2;ratioP2;P2;SDS_P1;SDS_P2;PMS_P1;PMS_P2;Temp;Humidity;BMP_temperature;BMP_pressure;BME280_temperature;BME280_humidity;BME280_pressure;Samples;Min_cycle;Max_cycle;Signal;HPM_P1;HPM_P2
2023/10/01 00:00:37;;;;;;;9.40;6.43;;;11.90;34.00;;;;;;5074848;28;20465;-57
2023/10/01 00:03:05;;;;;;;10.37;6.80;;;11.90;34.40;;;;;;5075742;28;20449;-56
2023/10/01 00:05:33;;;;;;;12.17;6.77;;;11.90;33.90;;;;;;5072295;28;20456;-56
2023/10/01 00:08:01;;;;;;;9.50;6.30;;;11.90;29.40;;;;;;5082160;28;20996;-56
2023/10/01 00:10:28;;;;;;;11.37;6.80;;;11.90;32.00;;;;;;5075234;28;20556;-57
2023/10/01 00:12:54;;;;;;;12.20;6.47;;;12.00;34.00;;;;;;5075221;28;20480;-57
2023/10/01 00:15:23;;;;;;;12.60;5.90;;;12.00;32.80;;;;;;5077725;28;21013;-56
2023/10/01 00:17:50;;;;;;;10.97;6.63;;;12.00;30.80;;;;;;5078076;28;20457;-56
2023/10/01 00:20:20;;;;;;;14.87;6.87;;;12.00;32.30;;;;;;5074063;28;20557;-57
2023/10/01 00:22:50;;;;;;;9.43;6.33;;;12.00;31.70;;;;;;5082204;28;20456;-57
2023/10/01 00:25:18;;;;;;;17.57;6.70;;;12.00;31.00;;;;;;5072553;28;20433;-56
2023/10/01 00:27:45;;;;;;;10.30;5.60;;;12.00;32.10;;;;;;5078750;28;21053;-56
2023/10/01 00:30:12;;;;;;;12.73;6.47;;;12.10;31.70;;;;;;5080097;28;20669;-56
2023/10/01 00:32:40;;;;;;;10.43;6.03;;;12.10;32.20;;;;;;5073686;28;20441;-56
2023/10/01 00:35:08;;;;;;;13.87;6.70;;;12.20;32.90;;;;;;5072741;28;20467;-56
2023/10/01 00:37:35;;;;;;;10.70;6.10;;;12.10;32.50;;;;;;5078373;28;21024;-57
2023/10/01 00:40:05;;;;;;;13.63;6.03;;;12.20;33.80;;;;;;5081754;28;20480;-57
2023/10/01 00:42:34;;;;;;;9.07;6.00;;;12.20;33.50;;;;;;5076242;28;20465;-57
2023/10/01 00:45:01;;;;;;;13.00;6.53;;;12.30;32.60;;;;;;5072422;28;20457;-57
2023/10/01 00:47:29;;;;;;;9.10;5.50;;;12.20;33.90;;;;;;5072310;28;20482;-57
2023/10/01 00:49:59;;;;;;;11.43;6.10;;;12.20;34.30;;;;;;5071588;28;20461;-57
2023/10/01 00:52:27;;;;;;;12.47;5.77;;;12.20;33.90;;;;;;5077473;28;20469;-57
2023/10/01 00:54:55;;;;;;;21.97;6.50;;;12.20;33.00;;;;;;5071900;28;20437;-57
2023/10/01 00:57:23;;;;;;;9.63;6.50;;;12.20;32.80;;;;;;5079570;28;20452;-57
2023/10/01 00:59:50;;;;;;;8.53;5.97;;;12.20;32.80;;;;;;5078598;28;20468;-57
2023/10/01 01:02:18;;;;;;;9.37;5.03;;;12.20;32.00;;;;;;5079409;28;20478;-57
2023/10/01 01:04:59;;;;;;;14.73;6.83;;;12.20;31.60;;;;;;5071526;28;20473;-57
2023/10/01 01:07:25;;;;;;;15.07;6.10;;;12.20;30.20;;;;;;5080172;28;20542;-57
2023/10/01 01:09:52;;;;;;;9.57;5.53;;;12.20;29.30;;;;;;5074112;28;21059;-57
2023/10/01 01:12:19;;;;;;;15.57;6.93;;;12.30;31.70;;;;;;5071499;28;20848;-57
2023/10/01 01:14:48;;;;;;;13.23;5.67;;;12.30;32.40;;;;;;5074927;28;20460;-57
2023/10/01 01:17:15;;;;;;;11.07;5.50;;;12.30;32.70;;;;;;5072874;28;20525;-57
2023/10/01 01:19:52;;;;;;;13.23;5.60;;;12.30;31.80;;;;;;5079812;28;20472;-57
2023/10/01 01:22:28;;;;;;;13.27;5.20;;;12.30;32.20;;;;;;5079899;28;20440;-57
2023/10/01 01:24:57;;;;;;;14.43;6.93;;;12.30;31.80;;;;;;5072165;28;20444;-56
2023/10/01 01:27:24;;;;;;;9.40;5.43;;;12.30;32.10;;;;;;5078387;28;20451;-56
2023/10/01 01:29:50;;;;;;;14.97;6.20;;;12.30;31.30;;;;;;5071378;28;20514;-56
2023/10/01 01:32:17;;;;;;;13.53;6.20;;;12.20;31.50;;;;;;5070545;28;20999;-57
2023/10/01 01:34:45;;;;;;;9.60;5.93;;;12.30;29.50;;;;;;5083670;28;20529;-56
2023/10/01 01:37:19;;;;;;;14.43;6.43;;;12.30;30.00;;;;;;5070545;28;20514;-56
2023/10/01 01:39:48;;;;;;;10.70;5.77;;;12.30;28.40;;;;;;5071296;28;20479;-56
2023/10/01 01:42:19;;;;;;;9.80;5.90;;;12.30;28.30;;;;;;5071823;28;20449;-57
2023/10/01 01:44:47;;;;;;;10.47;5.83;;;12.30;29.70;;;;;;5075904;28;20888;-56
2023/10/01 01:47:15;;;;;;;14.53;5.67;;;12.30;29.40;;;;;;5076833;28;20806;-57
2023/10/01 01:49:43;;;;;;;9.67;4.80;;;12.30;30.10;;;;;;5085525;28;20843;-57
2023/10/01 01:52:09;;;;;;;12.93;5.70;;;12.30;28.40;;;;;;5076134;28;20467;-58
2023/10/01 01:54:39;;;;;;;9.40;5.50;;;12.30;26.90;;;;;;5081958;28;21027;-56
2023/10/01 01:57:13;;;;;;;11.30;5.70;;;12.40;25.90;;;;;;5070927;28;20495;-56
2023/10/01 01:59:43;;;;;;;9.97;5.00;;;12.40;26.60;;;;;;5075014;28;20473;-58
2023/10/01 02:02:11;;;;;;;22.70;6.20;;;12.40;26.80;;;;;;5078459;28;20467;-56
2023/10/01 02:04:58;;;;;;;9.87;5.20;;;12.40;27.70;;;;;;5079700;28;21005;-56
2023/10/01 02:07:27;;;;;;;13.20;6.53;;;12.40;27.60;;;;;;5076720;28;20539;-57
2023/10/01 02:09:54;;;;;;;10.10;5.90;;;12.40;26.90;;;;;;5077397;28;20579;-57
2023/10/01 02:12:24;;;;;;;9.63;5.07;;;12.40;27.00;;;;;;5070340;28;20460;-57
2023/10/01 02:14:56;;;;;;;9.20;4.80;;;12.50;24.60;;;;;;5087851;28;20869;-57
2023/10/01 02:17:25;;;;;;;9.50;5.23;;;12.40;26.60;;;;;;5076004;28;20462;-56
2023/10/01 02:19:51;;;;;;;9.20;4.60;;;12.40;27.20;;;;;;5089586;28;20826;-56
2023/10/01 02:22:18;;;;;;;11.63;5.07;;;12.40;28.10;;;;;;5079519;28;20509;-56
2023/10/01 02:24:54;;;;;;;8.30;4.90;;;12.40;26.80;;;;;;5079316;28;20291;-57
2023/10/01 02:27:24;;;;;;;9.70;4.50;;;12.40;26.70;;;;;;5074107;28;20960;-57
2023/10/01 02:32:32;;;;;;;10.23;4.50;;;12.40;28.60;;;;;;5072635;28;20456;-56
2023/10/01 02:34:59;;;;;;;10.50;4.93;;;12.50;32.60;;;;;;5082460;28;20479;-56
2023/10/01 02:37:29;;;;;;;8.60;4.63;;;12.50;35.90;;;;;;5078142;28;21015;-56
2023/10/01 02:39:59;;;;;;;7.77;4.23;;;12.50;37.70;;;;;;5082435;28;20568;-57
2023/10/01 02:42:27;;;;;;;7.50;4.43;;;12.60;40.70;;;;;;5082788;28;20443;-57
2023/10/01 02:44:55;;;;;;;7.37;3.73;;;12.60;43.40;;;;;;5081027;28;20444;-56
2023/10/01 02:47:23;;;;;;;9.53;4.80;;;12.60;44.30;;;;;;5077059;28;20479;-56
2023/10/01 02:49:52;;;;;;;9.60;4.87;;;12.60;46.60;;;;;;5087972;28;20487;-57
2023/10/01 02:52:21;;;;;;;10.10;4.33;;;12.70;49.20;;;;;;5083695;28;21428;-56
2023/10/01 02:54:53;;;;;;;10.43;4.00;;;12.70;50.80;;;;;;5082497;28;20955;-56
2023/10/01 02:57:24;;;;;;;13.63;4.70;;;12.70;49.90;;;;;;5089307;28;20452;-56
2023/10/01 03:02:39;;;;;;;10.67;4.60;;;12.70;44.40;;;;;;5072890;28;20449;-57
2023/10/01 03:05:08;;;;;;;5.40;3.30;;;12.60;44.40;;;;;;5079614;28;20447;-57
2023/10/01 03:07:38;;;;;;;6.27;3.60;;;12.60;43.70;;;;;;5080808;28;20946;-56
2023/10/01 03:10:14;;;;;;;9.10;4.50;;;12.60;41.10;;;;;;5081949;28;20496;-56
2023/10/01 03:12:42;;;;;;;9.80;3.83;;;12.60;44.30;;;;;;5085249;28;20487;-56
2023/10/01 03:15:24;;;;;;;8.30;3.40;;;12.60;43.30;;;;;;5073804;28;20502;-56
2023/10/01 03:18:06;;;;;;;8.03;3.70;;;12.60;41.20;;;;;;5075616;28;20458;-56
2023/10/01 03:23:29;;;;;;;7.27;3.87;;;12.60;37.30;;;;;;5071857;28;20802;-56
2023/10/01 03:26:00;;;;;;;6.40;3.90;;;12.60;40.70;;;;;;5079052;28;20552;-56
2023/10/01 03:28:28;;;;;;;6.73;3.87;;;12.60;40.90;;;;;;5079795;28;20461;-56
2023/10/01 03:31:01;;;;;;;8.87;4.00;;;12.60;39.20;;;;;;5072160;28;20511;-57
2023/10/01 03:33:30;;;;;;;9.10;3.90;;;12.70;37.80;;;;;;5084315;28;20527;-58
2023/10/01 03:35:57;;;;;;;10.57;4.13;;;12.60;40.20;;;;;;5074903;28;20461;-55
2023/10/01 03:38:24;;;;;;;9.43;4.20;;;12.60;40.30;;;;;;5076710;28;20463;-56
2023/10/01 03:41:02;;;;;;;8.70;4.10;;;12.60;41.30;;;;;;5086641;28;20484;-56
2023/10/01 03:43:36;;;;;;;11.73;3.93;;;12.60;39.50;;;;;;5072092;28;20836;-58
2023/10/01 03:46:06;;;;;;;8.57;4.17;;;12.60;38.80;;;;;;5073916;28;20461;-56
2023/10/01 03:48:57;;;;;;;9.27;4.07;;;12.60;38.90;;;;;;5072900;28;20448;-57
2023/10/01 03:51:30;;;;;;;7.30;4.23;;;12.60;41.10;;;;;;5074541;28;20844;-56
2023/10/01 03:53:59;;;;;;;7.07;3.53;;;12.70;41.20;;;;;;5077114;28;20463;-56
2023/10/01 03:56:30;;;;;;;13.27;4.60;;;12.60;40.70;;;;;;5079448;28;20561;-56
2023/10/01 03:58:57;;;;;;;8.00;3.70;;;12.60;41.00;;;;;;5078565;28;20437;-57
2023/10/01 04:01:33;;;;;;;14.33;4.23;;;12.60;40.80;;;;;;5074176;28;20477;-56
2023/10/01 04:04:01;;;;;;;11.53;3.80;;;12.60;40.90;;;;;;5073085;28;20524;-55
2023/10/01 04:06:29;;;;;;;10.07;3.83;;;12.60;39.40;;;;;;5073653;28;20498;-56
2023/10/01 04:09:00;;;;;;;6.83;3.40;;;12.60;36.90;;;;;;5072708;28;20526;-56
2023/10/01 04:14:09;;;;;;;15.23;5.17;;;12.50;35.10;;;;;;5071649;28;20448;-56
2023/10/01 04:16:36;;;;;;;8.63;4.47;;;12.50;31.30;;;;;;5077534;28;20464;-57
2023/10/01 04:19:10;;;;;;;9.30;3.90;;;12.50;30.30;;;;;;5072642;28;20528;-56
2023/10/01 04:21:37;;;;;;;12.07;4.20;;;12.50;28.10;;;;;;5071839;28;20467;-57
2023/10/01 04:24:04;;;;;;;8.50;4.60;;;12.50;26.60;;;;;;5076457;28;20490;-57
2023/10/01 04:26:32;;;;;;;8.70;3.60;;;12.50;25.70;;;;;;5072960;28;20457;-57
2023/10/01 04:28:59;;;;;;;9.03;3.67;;;12.50;21.40;;;;;;5072355;28;20480;-57
2023/10/01 04:31:48;;;;;;;6.93;4.20;;;12.50;20.80;;;;;;5073903;28;20477;-57
2023/10/01 04:34:17;;;;;;;12.93;4.57;;;12.50;73.10;;;;;;5081053;28;20552;-57
2023/10/01 04:36:50;;;;;;;7.23;3.83;;;12.40;81.20;;;;;;5079944;28;20503;-57
2023/10/01 04:39:17;;;;;;;8.73;3.27;;;12.40;92.60;;;;;;5076443;28;20461;-57
2023/10/01 04:41:45;;;;;;;6.97;3.93;;;12.40;99.90;;;;;;5089053;28;20464;-57
2023/10/01 04:44:19;;;;;;;7.70;3.80;;;12.40;99.90;;;;;;5080754;28;20456;-57
2023/10/01 04:46:46;;;;;;;12.20;4.60;;;12.40;99.90;;;;;;5086407;28;20467;-56
2023/10/01 04:52:10;;;;;;;9.00;4.20;;;12.40;99.90;;;;;;5085574;28;21096;-56
2023/10/01 04:54:37;;;;;;;12.20;4.97;;;12.50;99.90;;;;;;5071693;28;20485;-57
2023/10/01 04:57:04;;;;;;;9.27;4.43;;;12.40;99.90;;;;;;5068106;28;20457;-56
2023/10/01 04:59:31;;;;;;;10.50;4.03;;;12.40;99.90;;;;;;5068360;28;20460;-55
2023/10/01 05:01:59;;;;;;;9.83;4.53;;;12.40;99.90;;;;;;5048901;28;20496;-55
2023/10/01 05:04:26;;;;;;;11.60;4.70;;;12.40;99.90;;;;;;5053592;28;20541;-55
2023/10/01 05:07:04;;;;;;;7.67;4.50;;;12.50;99.90;;;;;;5056519;28;20461;-56
2023/10/01 05:09:33;;;;;;;12.80;4.67;;;12.50;99.90;;;;;;5050887;28;20839;-57
2023/10/01 05:12:01;;;;;;;8.03;4.23;;;12.50;99.90;;;;;;5058834;28;20489;-56
2023/10/01 05:14:28;;;;;;;9.13;5.43;;;12.50;97.90;;;;;;5055198;28;20710;-55
2023/10/01 05:16:55;;;;;;;13.50;5.27;;;12.50;20.20;;;;;;5057521;28;20474;-56
2023/10/01 05:19:23;;;;;;;10.07;4.50;;;12.50;20.50;;;;;;5048679;28;20450;-55
2023/10/01 05:21:52;;;;;;;13.87;4.53;;;12.50;20.80;;;;;;5052078;28;20453;-55
2023/10/01 05:24:34;;;;;;;9.23;4.90;;;12.60;24.30;;;;;;5053751;28;20955;-56
2023/10/01 05:27:02;;;;;;;9.70;4.67;;;12.60;21.80;;;;;;5060078;28;20516;-55
2023/10/01 05:29:31;;;;;;;8.73;4.30;;;12.60;20.40;;;;;;5049405;28;20504;-56
2023/10/01 05:31:59;;;;;;;7.97;4.30;;;12.60;72.70;;;;;;5050387;28;20478;-55
2023/10/01 05:34:26;;;;;;;14.97;5.30;;;12.60;85.60;;;;;;5053266;28;20929;-56
2023/10/01 05:37:08;;;;;;;11.73;5.60;;;12.60;99.90;;;;;;5055918;28;20466;-56
2023/10/01 05:39:55;;;;;;;11.27;4.90;;;12.60;96.20;;;;;;5053306;28;20524;-56
2023/10/01 05:42:24;;;;;;;13.33;5.00;;;12.60;87.10;;;;;;5055729;28;20568;-56
2023/10/01 05:44:51;;;;;;;8.70;4.40;;;12.60;88.00;;;;;;5065610;28;20966;-58
2023/10/01 05:47:18;;;;;;;11.83;4.90;;;12.70;93.50;;;;;;5056343;28;20457;-61
2023/10/01 05:49:49;;;;;;;10.87;4.27;;;12.70;80.10;;;;;;5062377;28;20458;-58
2023/10/01 05:52:17;;;;;;;7.90;4.33;;;12.70;20.50;;;;;;5055599;28;20489;-57
2023/10/01 05:54:52;;;;;;;10.13;4.83;;;12.80;86.10;;;;;;5062269;28;20479;-59
2023/10/01 05:57:19;;;;;;;11.90;4.77;;;12.80;20.00;;;;;;5051160;28;20547;-55
2023/10/01 06:03:09;;;;;;;15.80;5.13;;;12.90;21.00;;;;;;5052435;28;20480;-53
2023/10/01 06:05:43;;;;;;;7.30;3.70;;;12.90;22.90;;;;;;5051884;28;20515;-57
2023/10/01 06:08:15;;;;;;;9.83;4.80;;;12.90;23.20;;;;;;5037808;28;20457;-55
2023/10/01 06:10:48;;;;;;;16.57;4.67;;;12.90;20.20;;;;;;5049036;28;20590;-55
2023/10/01 06:13:17;;;;;;;10.20;5.27;;;12.90;21.10;;;;;;5040197;28;20520;-55
2023/10/01 06:15:44;;;;;;;11.97;4.43;;;13.00;22.80;;;;;;5049325;28;20464;-57
2023/10/01 06:18:12;;;;;;;8.03;3.87;;;13.00;26.10;;;;;;5037769;28;20486;-56
2023/10/01 06:20:41;;;;;;;10.83;4.43;;;13.10;27.80;;;;;;5034786;28;20479;-57
2023/10/01 06:23:07;;;;;;;7.17;4.33;;;13.10;33.50;;;;;;5045912;28;20454;-54
2023/10/01 06:25:41;;;;;;;10.27;4.20;;;13.20;39.80;;;;;;5045291;28;20510;-55
2023/10/01 06:28:09;;;;;;;13.30;4.73;;;13.30;44.30;;;;;;5052361;28;20497;-55
2023/10/01 06:30:39;;;;;;;13.90;4.70;;;13.30;50.20;;;;;;5046839;28;21031;-56
2023/10/01 06:33:08;;;;;;;9.33;5.00;;;13.40;54.50;;;;;;5041853;28;20457;-56
2023/10/01 06:35:37;;;;;;;14.50;5.60;;;13.50;53.20;;;;;;5053246;28;20458;-55
2023/10/01 06:38:04;;;;;;;31.37;4.87;;;13.50;55.60;;;;;;5052108;28;20486;-56
2023/10/01 06:40:31;;;;;;;36.67;5.97;;;13.60;63.20;;;;;;5039662;28;21007;-56
2023/10/01 06:42:59;;;;;;;14.57;4.30;;;13.70;69.20;;;;;;5043700;28;20528;-56
2023/10/01 06:45:39;;;;;;;13.27;6.17;;;13.70;74.80;;;;;;5042032;28;21015;-56
2023/10/01 06:48:08;;;;;;;10.30;4.77;;;13.60;74.70;;;;;;5041266;28;20820;-56
2023/10/01 06:50:37;;;;;;;11.63;5.23;;;13.70;74.20;;;;;;5048919;28;20512;-57
2023/10/01 06:53:04;;;;;;;11.57;5.30;;;13.70;73.20;;;;;;5045052;28;20454;-55
2023/10/01 06:55:32;;;;;;;9.30;5.00;;;13.80;74.10;;;;;;5046563;28;20460;-56
2023/10/01 06:58:00;;;;;;;24.43;5.67;;;13.90;71.60;;;;;;5040621;28;20471;-56
2023/10/01 07:00:33;;;;;;;16.73;5.60;;;13.90;72.90;;;;;;5037641;28;21001;-56
2023/10/01 07:03:17;;;;;;;11.53;4.70;;;13.90;72.20;;;;;;5045014;28;20490;-56
2023/10/01 07:05:46;;;;;;;15.23;4.97;;;13.90;72.90;;;;;;5036542;28;20461;-55
2023/10/01 07:08:13;;;;;;;16.67;6.20;;;14.00;81.50;;;;;;5040196;28;20451;-56
2023/10/01 07:10:40;;;;;;;12.30;5.10;;;14.10;85.90;;;;;;5044805;28;20485;-57
2023/10/01 07:13:08;;;;;;;19.80;5.13;;;14.20;91.00;;;;;;5042842;28;20520;-57
2023/10/01 07:15:39;;;;;;;18.13;5.00;;;14.30;96.10;;;;;;5034798;28;20463;-56
2023/10/01 07:18:15;;;;;;;10.50;4.63;;;14.40;96.90;;;;;;5036325;28;20455;-56
2023/10/01 07:20:44;;;;;;;8.63;4.37;;;14.50;99.90;;;;;;5050645;28;20524;-55
2023/10/01 07:23:12;;;;;;;8.77;4.00;;;14.50;99.90;;;;;;5034587;28;20463;-55
2023/10/01 07:25:39;;;;;;;7.30;4.40;;;14.60;99.90;;;;;;5034421;28;20465;-56
2023/10/01 07:28:06;;;;;;;9.70;4.83;;;14.70;99.90;;;;;;5043010;28;20454;-55
2023/10/01 07:30:44;;;;;;;16.60;6.53;;;14.70;99.90;;;;;;5042543;28;20548;-55
2023/10/01 07:33:11;;;;;;;16.30;4.43;;;14.70;99.90;;;;;;5046762;28;20531;-56
2023/10/01 07:35:42;;;;;;;19.37;4.63;;;14.80;99.90;;;;;;5041796;28;20457;-54
2023/10/01 07:38:13;;;;;;;14.33;4.80;;;14.80;99.90;;;;;;5037821;28;20524;-55
2023/10/01 07:40:52;;;;;;;21.17;4.80;;;14.90;99.90;;;;;;5049146;28;20458;-56
2023/10/01 07:43:21;;;;;;;8.37;4.13;;;14.90;99.90;;;;;;5041371;28;20437;-56
2023/10/01 07:45:55;;;;;;;7.80;4.60;;;15.00;99.90;;;;;;5048483;28;20454;-56
2023/10/01 07:48:23;;;;;;;12.23;4.70;;;15.10;99.90;;;;;;5046927;28;20430;-55
2023/10/01 07:50:51;;;;;;;11.30;4.90;;;15.30;99.90;;;;;;5032388;28;20474;-56
2023/10/01 07:53:20;;;;;;;13.97;4.83;;;15.50;99.90;;;;;;5040609;28;20466;-56
2023/10/01 07:55:47;;;;;;;12.13;4.50;;;15.70;99.90;;;;;;5046504;28;20490;-56
2023/10/01 07:58:44;;;;;;;7.07;3.70;;;15.80;99.90;;;;;;5047159;28;20462;-56
2023/10/01 08:03:58;;;;;;;7.73;4.73;;;16.00;99.90;;;;;;5034399;28;20447;-55
2023/10/01 08:06:29;;;;;;;14.90;5.07;;;16.10;99.90;;;;;;5037960;28;20466;-56
2023/10/01 08:08:59;;;;;;;9.97;4.97;;;16.00;99.90;;;;;;5036848;28;20526;-55
2023/10/01 08:14:11;;;;;;;9.53;4.30;;;16.00;99.90;;;;;;5042496;28;20440;-55
2023/10/01 08:16:47;;;;;;;13.93;4.80;;;16.10;99.90;;;;;;5038302;28;20508;-54
2023/10/01 08:19:14;;;;;;;6.60;4.40;;;16.10;99.90;;;;;;5034326;28;20820;-55
2023/10/01 08:21:48;;;;;;;11.30;4.80;;;16.10;99.90;;;;;;5047671;28;20886;-56
2023/10/01 08:24:18;;;;;;;22.03;4.47;;;16.00;99.90;;;;;;5031989;28;20446;-55
2023/10/01 08:26:49;;;;;;;13.20;4.40;;;16.10;99.90;;;;;;5029508;28;20512;-54
2023/10/01 08:29:16;;;;;;;11.97;4.23;;;16.10;99.90;;;;;;5037524;28;20468;-54
2023/10/01 08:32:07;;;;;;;11.27;4.97;;;16.10;99.90;;;;;;5035362;28;20482;-54
2023/10/01 08:34:40;;;;;;;10.93;4.80;;;16.20;99.90;;;;;;5037860;28;20439;-55
2023/10/01 08:37:07;;;;;;;9.83;3.93;;;16.10;99.90;;;;;;5046377;28;20484;-55
2023/10/01 08:39:34;;;;;;;15.10;4.63;;;16.30;99.90;;;;;;5032573;28;20454;-56
2023/10/01 08:42:08;;;;;;;14.20;4.70;;;16.30;99.90;;;;;;5033678;28;20513;-55
2023/10/01 08:44:47;;;;;;;6.50;4.33;;;16.30;99.90;;;;;;5039159;28;21016;-55
2023/10/01 08:47:34;;;;;;;7.07;4.60;;;16.30;99.90;;;;;;5038443;28;20459;-55
2023/10/01 08:50:26;;;;;;;11.63;4.63;;;16.30;99.90;;;;;;5047914;28;20497;-55
2023/10/01 08:52:57;;;;;;;9.07;3.83;;;16.30;99.90;;;;;;5038897;28;20568;-54
2023/10/01 08:55:35;;;;;;;10.40;4.70;;;16.30;99.90;;;;;;5049660;28;20454;-55
2023/10/01 08:58:13;;;;;;;8.03;4.10;;;16.30;99.90;;;;;;5035540;28;20467;-55
2023/10/01 09:00:48;;;;;;;9.00;4.90;;;16.30;99.90;;;;;;5036279;28;21112;-54
2023/10/01 09:03:26;;;;;;;12.87;4.67;;;16.20;99.90;;;;;;5039286;28;20482;-55
2023/10/01 09:06:01;;;;;;;8.57;5.20;;;16.20;99.90;;;;;;5038454;28;20549;-56
2023/10/01 09:08:31;;;;;;;11.83;4.37;;;16.20;99.90;;;;;;5047601;28;20480;-54
2023/10/01 09:11:00;;;;;;;7.67;4.37;;;16.30;99.90;;;;;;5041761;28;20486;-55
2023/10/01 09:13:30;;;;;;;8.87;4.70;;;16.40;99.90;;;;;;5039824;28;20464;-55
2023/10/01 09:16:10;;;;;;;12.97;5.00;;;16.40;99.90;;;;;;5032926;28;20562;-55
2023/10/01 09:19:01;;;;;;;13.70;4.40;;;16.60;99.90;;;;;;5031274;28;20913;-55
2023/10/01 09:21:31;;;;;;;13.17;5.00;;;16.60;99.90;;;;;;5036318;28;20479;-55
2023/10/01 09:24:11;;;;;;;9.67;4.63;;;16.60;99.90;;;;;;5049362;28;20544;-54
2023/10/01 09:26:42;;;;;;;14.03;5.30;;;16.70;99.90;;;;;;5050452;28;20448;-54
2023/10/01 09:29:24;;;;;;;16.47;5.27;;;16.80;99.90;;;;;;5031861;28;20461;-55
2023/10/01 09:31:53;;;;;;;9.80;5.13;;;16.90;99.90;;;;;;5043024;28;21012;-55
2023/10/01 09:34:31;;;;;;;10.43;5.03;;;16.90;99.90;;;;;;5046404;28;20454;-56
2023/10/01 09:37:01;;;;;;;11.10;5.20;;;17.20;99.90;;;;;;5034090;28;20446;-55
2023/10/01 09:39:38;;;;;;;15.83;5.13;;;17.40;99.90;;;;;;5049681;28;20944;-55
2023/10/01 09:42:24;;;;;;;16.70;5.57;;;17.50;76.60;;;;;;5051887;28;20429;-55
2023/10/01 09:44:52;;;;;;;10.40;4.97;;;17.70;21.10;;;;;;5052570;28;20515;-55
2023/10/01 09:47:23;;;;;;;9.97;4.23;;;17.80;34.40;;;;;;5055081;28;20460;-54
2023/10/01 09:49:52;;;;;;;11.90;4.90;;;17.80;53.50;;;;;;5047667;28;21032;-55
2023/10/01 09:52:27;;;;;;;7.17;4.43;;;18.00;50.20;;;;;;5041589;28;20473;-55
2023/10/01 09:55:01;;;;;;;10.00;5.13;;;17.90;43.00;;;;;;5044129;28;20939;-56
2023/10/01 09:57:34;;;;;;;9.00;4.70;;;17.90;53.60;;;;;;5054897;28;20453;-56
2023/10/01 10:00:17;;;;;;;12.60;6.10;;;17.80;49.00;;;;;;5043192;28;20871;-55
2023/10/01 10:02:51;;;;;;;12.20;5.67;;;17.80;54.50;;;;;;5046694;28;20435;-55
2023/10/01 10:05:26;;;;;;;13.40;4.67;;;17.70;57.30;;;;;;5034875;28;20452;-55
2023/10/01 10:07:54;;;;;;;11.27;5.20;;;17.80;43.90;;;;;;5052115;28;20933;-55
2023/10/01 10:10:25;;;;;;;8.67;4.70;;;17.90;51.70;;;;;;5047933;28;20497;-55
2023/10/01 10:12:59;;;;;;;12.73;5.23;;;18.30;57.10;;;;;;5049645;28;20465;-55
2023/10/01 10:15:57;;;;;;;12.63;5.53;;;18.50;68.80;;;;;;5043351;28;20470;-55
2023/10/01 10:18:25;;;;;;;12.73;5.70;;;18.50;85.50;;;;;;5034581;28;20446;-55
2023/10/01 10:20:59;;;;;;;12.67;4.53;;;18.60;82.50;;;;;;5043388;28;20457;-55
2023/10/01 10:23:30;;;;;;;11.37;5.50;;;18.90;89.10;;;;;;5040593;28;20782;-55
2023/10/01 10:26:12;;;;;;;19.63;5.10;;;18.80;93.30;;;;;;5043788;28;20489;-56
2023/10/01 10:28:55;;;;;;;10.90;5.50;;;18.70;91.70;;;;;;5053866;28;20971;-55
2023/10/01 10:31:33;;;;;;;11.07;5.70;;;19.50;99.90;;;;;;5053774;28;20485;-55
2023/10/01 10:34:25;;;;;;;10.43;6.03;;;19.20;99.90;;;;;;5054326;28;20430;-56
2023/10/01 10:36:51;;;;;;;15.30;7.70;;;19.20;97.90;;;;;;5053920;28;20442;-55
2023/10/01 10:40:23;;;;;;;12.83;5.60;;;19.00;99.20;;;;;;5054164;28;20533;-55
2023/10/01 10:43:16;;;;;;;21.57;6.90;;;18.90;94.40;;;;;;5038048;23;20491;-57
2023/10/01 10:46:00;;;;;;;18.40;6.47;;;18.90;98.90;;;;;;5023002;28;20454;-55
2023/10/01 10:48:47;;;;;;;20.17;6.43;;;18.90;97.70;;;;;;5026234;28;20459;-55
2023/10/01 10:51:45;;;;;;;10.57;5.23;;;18.90;99.90;;;;;;5019706;28;20474;-56
2023/10/01 10:54:16;;;;;;;18.77;7.97;;;18.90;97.00;;;;;;5022828;28;20466;-56
2023/10/01 10:56:44;;;;;;;10.90;6.40;;;18.90;99.90;;;;;;5021699;28;20448;-57
2023/10/01 10:59:13;;;;;;;16.13;5.30;;;18.80;99.90;;;;;;5020800;28;20513;-56
2023/10/01 11:01:44;;;;;;;12.77;6.20;;;18.90;95.80;;;;;;5020710;28;20988;-56
2023/10/01 11:04:12;;;;;;;14.60;5.30;;;19.00;93.20;;;;;;5032795;28;20443;-56
2023/10/01 11:06:42;;;;;;;13.47;6.67;;;19.00;99.70;;;;;;5035745;28;20435;-56
2023/10/01 11:09:22;;;;;;;17.00;6.73;;;19.00;99.90;;;;;;5023810;28;20902;-57
2023/10/01 11:11:49;;;;;;;15.03;5.83;;;19.10;99.90;;;;;;5019708;28;20479;-57
2023/10/01 11:14:16;;;;;;;12.43;6.13;;;19.10;99.90;;;;;;5009149;28;20460;-57
2023/10/01 11:16:46;;;;;;;13.73;5.83;;;19.10;99.90;;;;;;5010606;28;20534;-55
2023/10/01 11:19:14;;;;;;;12.00;5.67;;;19.00;99.90;;;;;;5017203;28;20513;-56
2023/10/01 11:21:54;;;;;;;8.20;5.50;;;18.90;99.90;;;;;;5020654;28;20459;-56
2023/10/01 11:24:24;;;;;;;10.27;6.03;;;19.00;99.90;;;;;;5011846;28;20514;-55
2023/10/01 11:27:14;;;;;;;9.97;5.87;;;19.10;99.90;;;;;;5006499;28;20491;-56
2023/10/01 11:29:42;;;;;;;8.90;5.43;;;19.20;99.90;;;;;;5025370;28;20440;-57
2023/10/01 11:32:16;;;;;;;11.10;5.33;;;19.30;99.90;;;;;;5032101;28;20486;-56
2023/10/01 11:34:44;;;;;;;11.77;5.63;;;19.30;99.90;;;;;;5017835;28;20466;-57
2023/10/01 11:37:20;;;;;;;9.80;5.20;;;19.30;99.90;;;;;;5014238;28;20550;-56
2023/10/01 11:39:52;;;;;;;11.03;4.87;;;19.40;99.90;;;;;;5018766;28;20438;-56
2023/10/01 11:42:31;;;;;;;11.47;5.20;;;19.60;99.90;;;;;;5006145;28;20868;-55
2023/10/01 11:45:28;;;;;;;11.07;5.23;;;19.80;99.90;;;;;;5013205;28;20965;-57
2023/10/01 11:48:05;;;;;;;17.00;5.87;;;19.90;99.90;;;;;;5013130;28;20475;-56
2023/10/01 11:50:32;;;;;;;8.03;4.17;;;19.90;99.90;;;;;;5012575;28;20516;-56
2023/10/01 11:53:05;;;;;;;9.63;4.20;;;19.80;99.90;;;;;;5030355;28;20533;-56
2023/10/01 11:55:33;;;;;;;6.30;4.47;;;19.90;99.90;;;;;;5020341;28;20952;-56
2023/10/01 11:58:00;;;;;;;8.03;4.50;;;19.70;99.90;;;;;;5028663;28;20531;-56
2023/10/01 12:00:52;;;;;;;10.97;4.73;;;19.60;99.90;;;;;;5014366;28;20468;-56
2023/10/01 12:03:20;;;;;;;9.20;4.60;;;19.60;99.90;;;;;;5017118;28;20461;-56
2023/10/01 12:05:48;;;;;;;8.47;5.07;;;19.50;99.90;;;;;;5023775;28;20517;-57
2023/10/01 12:08:18;;;;;;;6.03;3.90;;;19.60;99.90;;;;;;5014834;28;20547;-56
2023/10/01 12:10:45;;;;;;;9.00;4.53;;;19.80;99.90;;;;;;5016096;28;20870;-56
2023/10/01 12:13:13;;;;;;;6.20;4.20;;;19.90;99.90;;;;;;5031215;28;20548;-56
2023/10/01 12:15:51;;;;;;;9.33;4.37;;;20.00;99.90;;;;;;5033792;28;20469;-55
2023/10/01 12:18:18;;;;;;;11.80;4.47;;;20.00;99.90;;;;;;5031573;28;20462;-55
2023/10/01 12:20:50;;;;;;;10.53;4.40;;;19.80;99.90;;;;;;5017266;28;20463;-56
2023/10/01 12:23:19;;;;;;;8.43;4.67;;;19.80;99.90;;;;;;5012195;28;20506;-55
2023/10/01 12:25:49;;;;;;;10.97;4.07;;;19.70;99.90;;;;;;5015297;28;20463;-56
2023/10/01 12:28:18;;;;;;;5.50;3.33;;;19.70;99.90;;;;;;5015879;28;21047;-56
2023/10/01 12:30:46;;;;;;;10.20;4.20;;;19.60;99.90;;;;;;5013087;28;20963;-56
2023/10/01 12:33:14;;;;;;;8.57;4.10;;;19.60;99.90;;;;;;5011452;28;20486;-56
2023/10/01 12:35:41;;;;;;;13.20;3.77;;;19.70;99.90;;;;;;5027045;28;20447;-56
2023/10/01 12:38:24;;;;;;;9.30;3.80;;;19.90;99.90;;;;;;5031599;28;20841;-57
2023/10/01 12:40:53;;;;;;;7.33;3.83;;;20.20;99.90;;;;;;5019037;28;20957;-56
2023/10/01 12:43:37;;;;;;;8.30;4.43;;;20.40;99.90;;;;;;5031429;28;20435;-57
2023/10/01 12:46:10;;;;;;;7.63;3.37;;;20.40;99.90;;;;;;5031198;28;20994;-56
2023/10/01 12:48:38;;;;;;;5.40;3.47;;;20.40;99.90;;;;;;5019543;28;20464;-56
2023/10/01 12:51:07;;;;;;;7.07;3.97;;;20.30;99.90;;;;;;5028221;28;20446;-55
2023/10/01 12:53:47;;;;;;;7.63;4.23;;;20.20;99.90;;;;;;5031239;28;20914;-57
2023/10/01 12:56:13;;;;;;;9.97;3.77;;;20.10;99.90;;;;;;5021168;28;20464;-56
2023/10/01 12:58:43;;;;;;;10.30;3.77;;;19.80;1.40;;;;;;5006931;28;20515;-56
2023/10/01 13:01:23;;;;;;;10.30;4.47;;;20.00;99.90;;;;;;5010303;28;20478;-56
2023/10/01 13:03:51;;;;;;;7.63;3.50;;;20.10;99.90;;;;;;5023870;28;20450;-56
2023/10/01 13:06:16;;;;;;;8.90;3.60;;;20.50;99.90;;;;;;5021699;28;20459;-56
2023/10/01 13:08:45;;;;;;;6.97;3.40;;;20.70;99.90;;;;;;5031098;28;20497;-56
2023/10/01 13:11:43;;;;;;;7.43;3.77;;;20.80;99.90;;;;;;5022355;28;20227;-56
2023/10/01 13:14:16;;;;;;;8.87;3.63;;;20.90;99.90;;;;;;5034781;28;20489;-56
2023/10/01 13:16:49;;;;;;;9.73;4.13;;;20.90;99.90;;;;;;5035021;28;20435;-56
2023/10/01 13:19:17;;;;;;;11.30;3.70;;;20.50;99.90;;;;;;5030890;28;20537;-56
2023/10/01 13:21:44;;;;;;;8.30;4.10;;;20.50;99.90;;;;;;5012367;28;20475;-56
2023/10/01 13:24:12;;;;;;;7.10;3.53;;;20.40;99.90;;;;;;5034083;28;20512;-55
2023/10/01 13:26:41;;;;;;;9.73;4.30;;;20.30;99.90;;;;;;5019589;28;20516;-56